Wilmington, North Carolina
Current Conditions -  °F | °C
As of 12:53 PM on Tuesday 21 Oct 2014 (Local Time) from KILM Reporting Station
Clear Clear  
Wind Chill: 76°   Ceiling: Unl
Heat Index: 76°   Visibility: 10mi
Dew Point: 52°   Wind: 9mph
Humidity: 43%   Direction: 270°W
Pressure: 29.89"   Gusts: NA
Location:  34.24°N, 77.94°W
Report Text: KILM 211653Z 27008KT 10SM CLR 24/11 A2989 RMK AO2 SLP123 T02440111
Loading
Personal Weather Stations






























Interactive Weather Map
Tropical Storm Tracking
New forecast layout! Learn more

10-Day Weather Forecast

Advertisements
Track Severe Weather on mobile